Time;durP1;ratioP1;P1;durP2;ratioP2;P2;SDS_P1;SDS_P2;PMS_P1;PMS_P2;Temp;Humidity;BMP_temperature;BMP_pressure;BME280_temperature;BME280_humidity;BME280_pressure;Samples;Min_cycle;Max_cycle;Signal;HPM_P1;HPM_P2
2022/04/17 00:01:20;;;;;;;1.97;1.40;;;12.20;1.00;;;;;;5058982;28;21328;-79
2022/04/17 00:03:48;;;;;;;1.57;1.40;;;12.20;1.00;;;;;;5057468;28;20494;-79
2022/04/17 00:06:17;;;;;;;1.50;1.40;;;12.10;1.00;;;;;;5059039;28;20494;-79
2022/04/17 00:08:45;;;;;;;1.50;1.40;;;12.10;1.00;;;;;;5056800;28;20460;-79
2022/04/17 00:11:13;;;;;;;1.70;1.60;;;12.10;1.00;;;;;;5061839;28;20478;-79
2022/04/17 00:13:42;;;;;;;1.80;1.40;;;12.00;1.00;;;;;;5058913;28;20460;-79
2022/04/17 00:16:11;;;;;;;1.60;1.50;;;12.00;1.00;;;;;;5057758;28;20465;-79
2022/04/17 00:18:40;;;;;;;1.93;1.57;;;12.00;1.00;;;;;;5057935;28;20455;-79
2022/04/17 00:21:10;;;;;;;2.17;1.87;;;12.00;1.00;;;;;;5062668;28;20450;-79
2022/04/17 00:23:38;;;;;;;1.90;1.80;;;11.90;1.00;;;;;;5061132;28;20550;-79
2022/04/17 00:26:06;;;;;;;1.87;1.60;;;11.80;1.00;;;;;;5059546;28;20485;-78
2022/04/17 00:28:34;;;;;;;1.83;1.60;;;11.90;1.00;;;;;;5062675;28;20460;-79
2022/04/17 00:31:02;;;;;;;2.27;2.07;;;11.80;1.00;;;;;;5059639;28;20455;-79
2022/04/17 00:33:32;;;;;;;1.60;1.50;;;11.80;1.00;;;;;;5064056;28;21039;-79
2022/04/17 00:36:00;;;;;;;1.97;1.50;;;11.70;1.00;;;;;;5062002;28;20468;-79
2022/04/17 00:38:28;;;;;;;2.17;1.50;;;11.60;1.00;;;;;;5058648;28;20467;-80
2022/04/17 00:40:56;;;;;;;1.47;1.37;;;11.50;1.00;;;;;;5064088;28;21216;-79
2022/04/17 00:43:26;;;;;;;1.80;1.50;;;11.60;1.00;;;;;;5059783;28;20447;-79
2022/04/17 00:45:54;;;;;;;1.50;1.40;;;11.60;1.00;;;;;;5060804;28;20787;-79
2022/04/17 00:48:22;;;;;;;2.20;2.00;;;11.60;1.00;;;;;;5060467;28;20447;-79
2022/04/17 00:50:54;;;;;;;2.37;1.70;;;11.50;1.00;;;;;;5062727;28;20964;-79
2022/04/17 00:53:23;;;;;;;1.90;1.73;;;11.50;1.00;;;;;;5058843;28;20521;-79
2022/04/17 00:55:52;;;;;;;2.00;1.90;;;11.50;1.00;;;;;;5059303;28;20478;-79
2022/04/17 00:58:21;;;;;;;1.63;1.53;;;11.50;1.00;;;;;;5056550;28;20541;-78
2022/04/17 01:00:49;;;;;;;1.93;1.63;;;11.60;1.00;;;;;;5063739;28;20949;-79
2022/04/17 01:03:19;;;;;;;1.90;1.80;;;11.50;1.00;;;;;;5056581;28;20452;-79
2022/04/17 01:05:48;;;;;;;3.00;1.90;;;11.50;1.00;;;;;;5055599;28;20474;-79
2022/04/17 01:08:17;;;;;;;1.73;1.47;;;11.70;1.00;;;;;;5060140;28;20457;-80
2022/04/17 01:10:45;;;;;;;1.90;1.80;;;11.50;1.00;;;;;;5064341;28;20460;-79
2022/04/17 01:13:13;;;;;;;3.77;2.00;;;11.60;1.00;;;;;;5062811;28;20482;-78
2022/04/17 01:15:43;;;;;;;1.93;1.70;;;11.50;1.00;;;;;;5056142;28;20477;-79
2022/04/17 01:18:12;;;;;;;2.43;2.17;;;11.50;1.00;;;;;;5059456;28;20561;-78
2022/04/17 01:20:41;;;;;;;2.13;1.93;;;11.40;1.00;;;;;;5062243;28;20462;-80
2022/04/17 01:28:47;;;;;;;1.60;1.50;;;11.40;1.00;;;;;;5052824;28;20948;-79
2022/04/17 01:31:15;;;;;;;1.83;1.73;;;11.30;1.00;;;;;;5060819;28;20971;-79
2022/04/17 01:33:47;;;;;;;2.67;1.90;;;11.30;1.00;;;;;;5061181;28;20545;-79
2022/04/17 01:36:15;;;;;;;5.00;1.77;;;11.30;1.00;;;;;;5057727;28;20470;-78
2022/04/17 01:38:45;;;;;;;1.63;1.53;;;11.30;1.00;;;;;;5060687;28;20455;-78
2022/04/17 01:41:15;;;;;;;4.03;1.93;;;11.30;1.00;;;;;;5059922;28;20452;-78
2022/04/17 01:43:43;;;;;;;1.60;1.50;;;11.30;1.00;;;;;;5058867;28;20455;-78
2022/04/17 01:46:11;;;;;;;2.10;1.90;;;11.60;1.00;;;;;;5058439;28;20483;-79
2022/04/17 01:48:40;;;;;;;1.97;1.77;;;11.30;1.00;;;;;;5060439;28;20891;-78
2022/04/17 01:51:08;;;;;;;1.93;1.80;;;11.30;1.00;;;;;;5061447;28;21213;-78
2022/04/17 01:53:36;;;;;;;2.13;1.60;;;11.50;1.00;;;;;;5056935;28;20487;-79
2022/04/17 01:56:06;;;;;;;1.60;1.50;;;11.30;1.00;;;;;;5054747;28;20485;-77
2022/04/17 01:58:34;;;;;;;3.23;1.80;;;11.30;1.00;;;;;;5059676;28;20453;-79
2022/04/17 02:01:02;;;;;;;3.30;3.10;;;11.30;1.00;;;;;;5063026;28;21105;-79
2022/04/17 02:03:31;;;;;;;2.00;1.80;;;11.30;1.00;;;;;;5057195;28;21729;-78
2022/04/17 02:06:00;;;;;;;2.10;2.00;;;11.20;1.00;;;;;;5059286;28;20470;-78
2022/04/17 02:08:28;;;;;;;2.00;1.60;;;11.20;1.00;;;;;;5056912;28;20521;-79
2022/04/17 02:10:57;;;;;;;2.40;1.93;;;11.20;1.00;;;;;;5056268;28;20463;-78
2022/04/17 02:13:27;;;;;;;4.20;2.07;;;11.00;1.00;;;;;;5066905;28;20496;-78
2022/04/17 02:15:55;;;;;;;1.90;1.60;;;11.00;1.00;;;;;;5063618;28;20588;-79
2022/04/17 02:18:25;;;;;;;1.97;1.87;;;10.90;1.00;;;;;;5056919;28;20487;-79
2022/04/17 02:20:54;;;;;;;2.57;2.00;;;10.90;1.00;;;;;;5060747;28;20455;-79
2022/04/17 02:23:22;;;;;;;2.10;1.90;;;10.80;1.00;;;;;;5056032;28;20446;-78
2022/04/17 02:25:50;;;;;;;1.80;1.70;;;10.80;1.00;;;;;;5059139;28;20477;-79
2022/04/17 02:28:18;;;;;;;1.90;1.67;;;10.80;1.00;;;;;;5057397;28;20455;-79
2022/04/17 02:30:48;;;;;;;1.80;1.70;;;10.80;1.00;;;;;;5058205;28;20936;-78
2022/04/17 02:33:17;;;;;;;2.90;1.87;;;10.80;1.00;;;;;;5057881;28;20465;-78
2022/04/17 02:35:45;;;;;;;2.13;1.87;;;10.80;1.00;;;;;;5055314;28;20891;-78
2022/04/17 02:38:14;;;;;;;2.53;2.00;;;10.80;1.00;;;;;;5056838;28;21032;-79
2022/04/17 02:40:43;;;;;;;2.60;2.27;;;10.80;1.00;;;;;;5058624;28;20802;-79
2022/04/17 02:43:11;;;;;;;3.30;2.30;;;10.70;1.00;;;;;;5057773;28;20451;-79
2022/04/17 02:45:39;;;;;;;2.13;1.90;;;10.80;1.00;;;;;;5054727;28;20483;-79
2022/04/17 02:48:08;;;;;;;3.30;1.70;;;10.90;1.00;;;;;;5060828;28;20482;-79
2022/04/17 02:50:36;;;;;;;2.23;1.57;;;10.80;1.00;;;;;;5056207;28;20459;-79
2022/04/17 02:53:04;;;;;;;2.23;2.03;;;10.80;1.00;;;;;;5063614;28;20462;-78
2022/04/17 02:55:33;;;;;;;3.13;2.03;;;10.80;1.00;;;;;;5058638;28;20473;-78
2022/04/17 02:58:01;;;;;;;1.93;1.70;;;11.20;1.00;;;;;;5060034;28;20451;-79
2022/04/17 03:00:31;;;;;;;1.90;1.70;;;10.90;1.00;;;;;;5053582;28;20447;-78
2022/04/17 03:05:46;;;;;;;3.33;2.30;;;10.80;1.00;;;;;;5056915;28;20528;-78
2022/04/17 03:08:17;;;;;;;2.70;2.20;;;10.80;1.00;;;;;;5057002;28;20455;-78
2022/04/17 03:10:47;;;;;;;3.23;2.50;;;10.90;1.00;;;;;;5058096;28;20513;-78
2022/04/17 03:13:16;;;;;;;2.80;2.57;;;10.70;1.00;;;;;;5059783;28;20485;-78
2022/04/17 03:15:44;;;;;;;1.80;1.70;;;10.70;1.00;;;;;;5052765;28;20485;-79
2022/04/17 03:18:13;;;;;;;3.03;2.20;;;10.80;1.00;;;;;;5059124;28;20455;-79
2022/04/17 03:20:41;;;;;;;2.23;2.00;;;10.70;1.00;;;;;;5052547;28;20460;-79
2022/04/17 03:23:11;;;;;;;2.60;2.40;;;10.70;1.00;;;;;;5056035;28;20527;-78
2022/04/17 03:25:39;;;;;;;2.47;2.27;;;10.70;1.00;;;;;;5056330;28;20927;-78
2022/04/17 03:28:08;;;;;;;3.40;2.17;;;10.70;1.00;;;;;;5054961;28;20784;-78
2022/04/17 03:30:36;;;;;;;3.83;2.57;;;10.60;1.00;;;;;;5053932;28;20467;-79
2022/04/17 03:33:04;;;;;;;2.33;2.13;;;10.60;1.00;;;;;;5058938;28;20478;-79
2022/04/17 03:35:32;;;;;;;2.37;2.10;;;10.50;1.00;;;;;;5060217;28;20481;-78
2022/04/17 03:38:01;;;;;;;2.10;2.00;;;10.40;1.00;;;;;;5063604;28;20451;-78
2022/04/17 03:40:30;;;;;;;2.83;2.40;;;10.40;1.00;;;;;;5061645;28;20446;-78
2022/04/17 03:42:59;;;;;;;2.43;1.97;;;10.40;1.00;;;;;;5064012;28;20999;-79
2022/04/17 03:45:27;;;;;;;2.50;1.90;;;10.30;1.00;;;;;;5061328;28;20478;-79
2022/04/17 03:47:55;;;;;;;2.50;2.13;;;10.20;1.00;;;;;;5064645;28;20460;-79
2022/04/17 03:50:23;;;;;;;2.13;2.03;;;10.10;1.00;;;;;;5064878;28;20455;-78
2022/04/17 03:52:51;;;;;;;2.50;2.30;;;10.00;1.00;;;;;;5061009;28;21046;-79
2022/04/17 03:55:19;;;;;;;2.90;2.73;;;10.00;1.00;;;;;;5059841;28;20478;-78
2022/04/17 03:57:49;;;;;;;2.10;2.00;;;10.00;1.00;;;;;;5064595;28;20520;-79
2022/04/17 04:00:18;;;;;;;4.73;3.07;;;9.90;1.00;;;;;;5058219;28;20455;-79
2022/04/17 04:02:51;;;;;;;2.77;2.00;;;9.90;1.00;;;;;;5061787;28;20447;-79
2022/04/17 04:05:20;;;;;;;2.20;2.07;;;10.00;1.00;;;;;;5062475;28;20554;-79
2022/04/17 04:07:49;;;;;;;2.53;2.33;;;9.80;1.00;;;;;;5060488;28;20545;-77
2022/04/17 04:10:17;;;;;;;2.77;1.93;;;9.80;1.00;;;;;;5058554;28;20458;-77
2022/04/17 04:12:45;;;;;;;4.87;2.57;;;9.70;1.00;;;;;;5056773;28;20461;-78
2022/04/17 04:15:15;;;;;;;2.53;2.33;;;9.70;1.00;;;;;;5057567;28;20485;-78
2022/04/17 04:17:43;;;;;;;4.53;2.33;;;9.60;1.00;;;;;;5062946;28;20457;-76
2022/04/17 04:20:12;;;;;;;2.60;2.40;;;9.70;1.00;;;;;;5062868;28;20969;-78
2022/04/17 04:22:40;;;;;;;3.10;2.17;;;9.70;1.00;;;;;;5059043;28;21085;-78
2022/04/17 04:25:09;;;;;;;2.87;2.17;;;9.70;1.00;;;;;;5060464;28;20474;-78
2022/04/17 04:30:25;;;;;;;2.43;2.00;;;9.80;1.00;;;;;;5055582;28;20447;-79
2022/04/17 04:32:56;;;;;;;2.50;2.03;;;9.90;1.00;;;;;;5060890;28;21091;-79
2022/04/17 04:35:26;;;;;;;2.07;1.90;;;9.90;1.00;;;;;;5052921;28;21074;-78
2022/04/17 04:37:54;;;;;;;3.00;2.00;;;9.90;1.00;;;;;;5062390;28;20450;-78
2022/04/17 04:40:23;;;;;;;4.30;2.43;;;9.90;1.00;;;;;;5058522;28;20461;-79
2022/04/17 04:42:58;;;;;;;2.00;1.90;;;9.90;1.00;;;;;;5061926;28;20461;-78
2022/04/17 04:48:14;;;;;;;2.50;1.73;;;9.80;1.00;;;;;;5062097;28;20549;-80
2022/04/17 04:50:42;;;;;;;2.40;2.20;;;9.80;1.00;;;;;;5057671;28;21038;-79
2022/04/17 04:53:10;;;;;;;2.40;2.20;;;10.10;1.00;;;;;;5056882;28;20469;-79
2022/04/17 04:55:39;;;;;;;2.40;1.97;;;9.80;1.00;;;;;;5056517;28;20506;-79
2022/04/17 04:58:07;;;;;;;3.07;2.00;;;9.70;1.00;;;;;;5061771;28;20461;-77
2022/04/17 05:00:37;;;;;;;2.43;1.80;;;9.80;1.00;;;;;;5055520;28;20445;-76
2022/04/17 05:03:07;;;;;;;4.57;2.00;;;9.80;1.00;;;;;;5062537;28;20453;-78
2022/04/17 05:05:35;;;;;;;2.40;2.20;;;9.70;1.00;;;;;;5058731;28;21011;-77
2022/04/17 05:08:04;;;;;;;2.07;1.97;;;9.70;1.00;;;;;;5059452;28;20907;-77
2022/04/17 05:10:32;;;;;;;2.73;2.30;;;9.70;1.00;;;;;;5059727;28;20505;-78
2022/04/17 05:13:00;;;;;;;2.10;1.87;;;9.60;1.00;;;;;;5066051;28;20467;-78
2022/04/17 05:15:30;;;;;;;3.40;1.90;;;9.60;1.00;;;;;;5059423;28;20519;-78
2022/04/17 05:17:59;;;;;;;3.43;1.97;;;9.60;1.00;;;;;;5061302;28;21637;-78
2022/04/17 05:20:27;;;;;;;1.77;1.67;;;10.00;1.00;;;;;;5057234;28;20811;-78
2022/04/17 05:23:03;;;;;;;2.00;1.60;;;9.80;1.00;;;;;;5059848;28;20468;-79
2022/04/17 05:25:32;;;;;;;1.60;1.50;;;9.90;1.00;;;;;;5058943;28;20477;-77
2022/04/17 05:28:00;;;;;;;2.30;1.73;;;9.90;1.00;;;;;;5060325;28;20470;-79
2022/04/17 05:30:28;;;;;;;2.27;1.47;;;10.00;1.00;;;;;;5056175;28;21197;-78
2022/04/17 05:32:56;;;;;;;1.80;1.70;;;10.00;1.00;;;;;;5055462;28;20485;-80
2022/04/17 05:35:26;;;;;;;1.73;1.63;;;10.00;1.00;;;;;;5059866;28;20550;-78
2022/04/17 05:37:54;;;;;;;3.37;1.40;;;10.00;1.00;;;;;;5057895;28;20465;-78
2022/04/17 05:40:22;;;;;;;1.90;1.80;;;10.00;1.00;;;;;;5059895;28;20447;-79
2022/04/17 05:42:50;;;;;;;1.83;1.70;;;10.00;1.00;;;;;;5058536;28;20513;-80
2022/04/17 05:45:19;;;;;;;2.03;1.70;;;10.10;1.00;;;;;;5053538;28;20468;-78
2022/04/17 05:47:47;;;;;;;3.20;1.60;;;10.10;1.00;;;;;;5056160;28;20448;-77
2022/04/17 05:50:15;;;;;;;2.77;1.60;;;10.50;1.00;;;;;;5057081;28;20534;-79
2022/04/17 05:52:46;;;;;;;1.60;1.50;;;10.20;1.00;;;;;;5053301;28;20476;-78
2022/04/17 05:55:14;;;;;;;2.37;2.17;;;10.20;1.00;;;;;;5054028;28;20523;-80
2022/04/17 05:57:43;;;;;;;2.60;2.13;;;10.50;1.00;;;;;;5057798;28;20470;-78
2022/04/17 06:00:12;;;;;;;1.87;1.77;;;10.20;1.00;;;;;;5058323;28;20443;-79
2022/04/17 06:02:41;;;;;;;2.47;1.47;;;10.30;1.00;;;;;;5061580;28;20505;-80
2022/04/17 06:05:11;;;;;;;6.60;1.60;;;10.40;1.00;;;;;;5058040;28;20477;-80
2022/04/17 06:07:39;;;;;;;1.43;1.33;;;10.50;1.00;;;;;;5058179;28;20442;-79
2022/04/17 06:10:11;;;;;;;1.83;1.60;;;10.40;1.00;;;;;;5060237;28;20442;-81
2022/04/17 06:12:40;;;;;;;2.27;1.60;;;10.50;1.00;;;;;;5054222;28;20451;-80
2022/04/17 06:15:10;;;;;;;1.83;1.30;;;10.50;1.00;;;;;;5056246;28;20508;-79
2022/04/17 06:17:40;;;;;;;2.67;1.80;;;10.80;1.00;;;;;;5060091;28;20457;-79
2022/04/17 06:20:11;;;;;;;2.73;2.20;;;10.70;1.00;;;;;;5063361;28;20458;-79
2022/04/17 06:22:39;;;;;;;2.67;1.60;;;10.80;1.00;;;;;;5055748;28;22436;-79
2022/04/17 06:25:10;;;;;;;2.33;1.50;;;10.90;1.00;;;;;;5056135;28;20478;-81
2022/04/17 06:27:39;;;;;;;1.80;1.70;;;11.10;1.00;;;;;;5056685;28;20470;-79
2022/04/17 06:30:10;;;;;;;1.93;1.17;;;11.10;1.00;;;;;;5055659;28;20454;-76
2022/04/17 06:32:38;;;;;;;1.77;1.67;;;11.20;1.00;;;;;;5070954;28;21136;-76
2022/04/17 06:35:07;;;;;;;1.70;1.60;;;11.20;1.00;;;;;;5059348;28;20489;-77
2022/04/17 06:37:46;;;;;;;1.47;1.37;;;11.40;1.00;;;;;;5064603;28;20497;-77
2022/04/17 06:40:18;;;;;;;2.83;1.80;;;11.60;1.00;;;;;;5061443;28;20469;-75
2022/04/17 06:42:47;;;;;;;2.30;1.67;;;11.70;1.00;;;;;;5058662;28;20455;-77
2022/04/17 06:45:15;;;;;;;2.23;1.60;;;11.90;1.00;;;;;;5056697;28;20466;-76
2022/04/17 06:47:43;;;;;;;2.10;1.77;;;12.00;1.00;;;;;;5054961;28;20811;-76
2022/04/17 06:50:12;;;;;;;2.83;1.77;;;12.20;1.00;;;;;;5056865;28;20458;-76
2022/04/17 06:52:40;;;;;;;1.70;1.40;;;12.60;1.00;;;;;;5052256;28;20451;-77
2022/04/17 06:55:12;;;;;;;1.53;1.40;;;12.40;1.00;;;;;;5058326;28;20864;-77
2022/04/17 06:57:46;;;;;;;1.93;1.83;;;12.50;1.00;;;;;;5051470;28;20486;-77
2022/04/17 07:00:15;;;;;;;1.60;1.50;;;12.60;1.00;;;;;;5053471;28;21061;-76
2022/04/17 07:02:44;;;;;;;3.83;1.63;;;12.80;1.00;;;;;;5060145;28;20465;-80
2022/04/17 07:05:14;;;;;;;1.40;1.30;;;12.80;1.00;;;;;;5053094;28;21131;-77
2022/04/17 07:07:42;;;;;;;1.50;1.23;;;13.00;1.00;;;;;;5052605;28;20451;-77
2022/04/17 07:10:11;;;;;;;2.67;2.00;;;13.00;1.00;;;;;;5057450;28;20451;-77
2022/04/17 07:12:44;;;;;;;1.37;1.27;;;13.10;1.00;;;;;;5059548;28;20459;-76
2022/04/17 07:15:12;;;;;;;1.57;1.47;;;13.10;1.00;;;;;;5059182;28;20474;-78
2022/04/17 07:17:42;;;;;;;1.50;1.40;;;13.20;1.00;;;;;;5054900;28;20445;-78
2022/04/17 07:20:11;;;;;;;1.60;1.50;;;13.30;1.00;;;;;;5064314;28;20520;-78
2022/04/17 07:22:41;;;;;;;2.20;1.40;;;13.50;1.00;;;;;;5058029;28;20209;-77
2022/04/17 07:25:11;;;;;;;1.40;1.30;;;13.70;1.00;;;;;;5056501;28;20558;-78
2022/04/17 07:27:42;;;;;;;1.67;1.57;;;13.80;1.00;;;;;;5065910;28;20487;-77
2022/04/17 07:30:13;;;;;;;2.30;1.30;;;13.90;1.00;;;;;;5059946;28;20456;-78
2022/04/17 07:32:42;;;;;;;1.83;1.50;;;14.10;1.00;;;;;;5053428;28;20483;-78
2022/04/17 07:35:11;;;;;;;2.50;1.50;;;14.20;1.00;;;;;;5054630;28;20561;-78
2022/04/17 07:37:39;;;;;;;1.80;1.70;;;14.40;1.00;;;;;;5059336;28;20500;-78
2022/04/17 07:40:13;;;;;;;1.60;1.30;;;14.40;1.00;;;;;;5064854;28;20454;-78
2022/04/17 07:42:43;;;;;;;1.50;1.10;;;14.40;1.00;;;;;;5058850;28;20549;-78
2022/04/17 07:45:13;;;;;;;2.10;1.52;;;14.50;1.00;;;;;;5056244;28;20445;-78
2022/04/17 07:47:41;;;;;;;1.50;1.40;;;14.50;1.00;;;;;;5059272;28;20205;-78
2022/04/17 07:50:12;;;;;;;1.63;1.53;;;14.60;1.00;;;;;;5058759;28;20461;-78
2022/04/17 07:52:41;;;;;;;1.73;1.40;;;14.60;1.00;;;;;;5064575;28;20440;-78
2022/04/17 07:55:11;;;;;;;1.73;1.63;;;14.60;1.00;;;;;;5061796;28;20484;-78
2022/04/17 07:58:01;;;;;;;1.57;1.30;;;14.20;1.00;;;;;;5065811;28;20453;-77
2022/04/17 08:00:33;;;;;;;1.83;1.50;;;14.50;1.00;;;;;;5066766;28;20460;-79
2022/04/17 08:03:20;;;;;;;1.50;1.40;;;14.40;1.00;;;;;;5064163;28;20492;-77
2022/04/17 08:05:50;;;;;;;1.40;1.30;;;14.40;1.00;;;;;;5062438;28;20491;-78
2022/04/17 08:08:19;;;;;;;2.07;1.40;;;14.30;1.00;;;;;;5056386;28;20468;-78
2022/04/17 08:10:47;;;;;;;1.40;1.30;;;14.20;1.00;;;;;;5061190;28;20841;-77
2022/04/17 08:13:16;;;;;;;5.60;1.60;;;14.30;1.00;;;;;;5056470;28;20459;-77
2022/04/17 08:15:46;;;;;;;2.20;1.47;;;14.30;1.00;;;;;;5054619;28;20488;-78
2022/04/17 08:18:14;;;;;;;1.43;1.10;;;14.30;1.00;;;;;;5062983;28;20475;-78
2022/04/17 08:20:43;;;;;;;1.53;1.33;;;14.40;1.00;;;;;;5064194;28;20467;-78
2022/04/17 08:23:11;;;;;;;1.70;1.60;;;14.30;1.00;;;;;;5060625;28;20493;-79
2022/04/17 08:25:39;;;;;;;1.70;1.60;;;14.10;1.00;;;;;;5064146;28;20478;-78
2022/04/17 08:28:08;;;;;;;3.53;1.30;;;14.10;1.00;;;;;;5068371;28;20449;-78
2022/04/17 08:30:37;;;;;;;1.50;1.40;;;14.00;1.00;;;;;;5068529;28;20457;-78
2022/04/17 08:33:09;;;;;;;2.00;1.20;;;13.70;1.00;;;;;;5068826;28;20493;-79
2022/04/17 08:35:37;;;;;;;1.70;1.60;;;13.90;1.00;;;;;;5065541;28;20489;-78
2022/04/17 08:38:06;;;;;;;1.40;1.30;;;14.00;1.00;;;;;;5068289;28;20485;-78
2022/04/17 08:40:34;;;;;;;1.90;1.80;;;14.00;1.00;;;;;;5059406;28;20610;-77
2022/04/17 08:43:03;;;;;;;2.00;1.60;;;14.10;1.00;;;;;;5065831;28;20477;-78
2022/04/17 08:45:31;;;;;;;1.93;1.10;;;14.20;1.00;;;;;;5067225;28;20476;-78
2022/04/17 08:48:00;;;;;;;1.57;1.33;;;14.20;1.00;;;;;;5068432;28;20534;-79
2022/04/17 08:50:32;;;;;;;1.60;1.50;;;14.30;1.00;;;;;;5056444;28;20485;-78
2022/04/17 08:53:01;;;;;;;1.50;1.40;;;14.40;1.00;;;;;;5068563;28;20999;-78
2022/04/17 08:55:30;;;;;;;1.60;1.50;;;14.40;1.00;;;;;;5067303;28;20480;-78
2022/04/17 08:57:58;;;;;;;2.37;1.40;;;14.40;1.00;;;;;;5067411;28;20464;-77
2022/04/17 09:00:26;;;;;;;2.47;1.30;;;14.70;1.00;;;;;;5057482;28;20461;-78
2022/04/17 09:02:54;;;;;;;1.40;1.30;;;14.50;1.00;;;;;;5057562;28;20946;-78
2022/04/17 09:05:22;;;;;;;1.43;0.90;;;14.50;1.00;;;;;;5065854;28;20832;-79
2022/04/17 09:07:53;;;;;;;1.10;1.00;;;14.50;1.00;;;;;;5068244;28;20457;-77
2022/04/17 09:10:27;;;;;;;1.23;1.13;;;14.60;1.00;;;;;;5065857;28;20466;-80
2022/04/17 09:12:57;;;;;;;1.43;1.33;;;14.50;1.00;;;;;;5064551;28;20453;-78
2022/04/17 09:15:26;;;;;;;1.20;1.10;;;14.60;1.00;;;;;;5059524;28;20558;-79
2022/04/17 09:17:55;;;;;;;1.40;1.30;;;14.40;1.00;;;;;;5062849;28;20504;-78
2022/04/17 09:20:24;;;;;;;1.40;1.30;;;14.30;1.00;;;;;;5056201;28;20454;-78
2022/04/17 09:22:55;;;;;;;2.63;1.43;;;14.30;1.00;;;;;;5067221;28;20480;-78
2022/04/17 09:25:24;;;;;;;1.53;1.30;;;14.40;1.00;;;;;;5059197;28;20479;-77
2022/04/17 09:27:57;;;;;;;0.90;0.90;;;14.40;1.00;;;;;;5053068;28;20459;-77
2022/04/17 09:30:28;;;;;;;4.07;1.20;;;14.40;1.00;;;;;;5061762;28;20459;-78
2022/04/17 09:32:57;;;;;;;1.13;1.10;;;14.30;1.00;;;;;;5066686;28;20461;-78
2022/04/17 09:35:27;;;;;;;1.30;1.20;;;14.30;1.00;;;;;;5064279;28;21087;-77
2022/04/17 09:37:58;;;;;;;1.83;1.10;;;14.30;1.00;;;;;;5067118;28;20529;-78
2022/04/17 09:40:28;;;;;;;1.80;1.30;;;14.10;1.00;;;;;;5067568;28;20465;-78
2022/04/17 09:43:12;;;;;;;1.17;1.10;;;14.10;1.00;;;;;;5063138;28;20457;-78
2022/04/17 09:45:59;;;;;;;1.00;1.00;;;14.10;1.00;;;;;;5057173;28;20489;-78
2022/04/17 09:48:34;;;;;;;2.10;1.00;;;14.30;1.00;;;;;;5064570;28;20457;-78
2022/04/17 09:51:18;;;;;;;1.63;1.00;;;14.40;1.00;;;;;;5058899;28;20469;-78
2022/04/17 09:53:57;;;;;;;1.53;1.43;;;14.60;1.00;;;;;;5055494;28;20957;-77
2022/04/17 09:56:32;;;;;;;1.67;1.17;;;14.80;1.00;;;;;;5065495;28;20540;-78
2022/04/17 09:59:01;;;;;;;1.20;1.10;;;15.00;1.00;;;;;;5065663;28;20452;-78
2022/04/17 10:01:29;;;;;;;2.07;1.00;;;15.00;1.00;;;;;;5067108;28;20476;-77
2022/04/17 10:03:58;;;;;;;1.00;1.00;;;15.00;1.00;;;;;;5067456;28;20462;-78
2022/04/17 10:06:26;;;;;;;1.30;1.20;;;15.00;1.00;;;;;;5065155;28;20500;-78
2022/04/17 10:08:57;;;;;;;1.87;1.20;;;15.00;1.00;;;;;;5057467;28;20468;-78
2022/04/17 10:11:27;;;;;;;1.87;1.23;;;15.00;1.00;;;;;;5061009;28;20518;-79
2022/04/17 10:13:57;;;;;;;1.13;1.00;;;15.10;1.00;;;;;;5067219;28;20456;-78
2022/04/17 10:16:27;;;;;;;0.90;0.90;;;15.20;1.00;;;;;;5065555;28;20512;-78
2022/04/17 10:18:55;;;;;;;1.10;0.97;;;15.30;1.00;;;;;;5067100;28;20522;-78
2022/04/17 10:21:28;;;;;;;9.43;1.83;;;15.30;1.00;;;;;;5065426;28;20799;-78
2022/04/17 10:24:02;;;;;;;1.50;0.90;;;15.40;1.00;;;;;;5065033;28;20454;-78
2022/04/17 10:26:36;;;;;;;1.20;0.93;;;15.50;1.00;;;;;;5063048;28;20505;-78
2022/04/17 10:29:07;;;;;;;1.47;1.10;;;15.60;1.00;;;;;;5061725;28;20446;-78
2022/04/17 10:31:46;;;;;;;1.00;1.00;;;15.50;1.00;;;;;;5065441;28;20515;-78
2022/04/17 10:34:48;;;;;;;1.57;0.90;;;15.50;1.00;;;;;;5063671;28;20448;-76
2022/04/17 10:37:34;;;;;;;1.10;1.00;;;15.50;1.00;;;;;;5065197;28;20475;-78
2022/04/17 10:40:04;;;;;;;0.80;0.80;;;15.30;1.00;;;;;;5061743;28;20465;-78
2022/04/17 10:42:36;;;;;;;1.03;1.00;;;15.30;1.00;;;;;;5064115;28;20457;-79
2022/04/17 10:45:05;;;;;;;2.30;1.10;;;15.50;1.00;;;;;;5069730;28;20477;-78
2022/04/17 10:47:33;;;;;;;1.33;1.00;;;15.60;1.00;;;;;;5067146;28;20454;-79
2022/04/17 10:50:09;;;;;;;1.00;0.90;;;15.70;1.00;;;;;;5070733;28;20477;-78
2022/04/17 10:52:38;;;;;;;1.10;1.00;;;15.80;1.00;;;;;;5069987;28;20457;-78
2022/04/17 10:55:13;;;;;;;1.00;1.00;;;15.80;1.00;;;;;;5069025;28;20475;-78
2022/04/17 10:57:45;;;;;;;1.03;1.00;;;15.70;1.00;;;;;;5069680;28;20497;-78
2022/04/17 11:00:28;;;;;;;1.00;0.90;;;15.40;1.00;;;;;;5065458;28;20450;-76
2022/04/17 11:03:22;;;;;;;1.80;1.10;;;15.30;1.00;;;;;;5070182;28;20442;-78
2022/04/17 11:06:09;;;;;;;1.20;1.10;;;15.40;1.00;;;;;;5068602;28;20473;-78
2022/04/17 11:08:58;;;;;;;1.10;0.90;;;15.50;1.00;;;;;;5070087;28;20442;-79
2022/04/17 11:11:37;;;;;;;1.10;0.90;;;15.60;1.00;;;;;;5069683;28;20449;-78
2022/04/17 11:14:10;;;;;;;1.03;0.87;;;15.80;1.00;;;;;;5061893;28;20458;-79
2022/04/17 11:16:53;;;;;;;2.80;1.00;;;15.80;1.00;;;;;;5067628;28;20557;-78
2022/04/17 11:19:23;;;;;;;1.83;0.90;;;16.00;1.00;;;;;;5069883;28;20438;-78
2022/04/17 11:21:53;;;;;;;1.40;0.80;;;15.90;1.00;;;;;;5064028;28;20615;-78
2022/04/17 11:24:22;;;;;;;1.40;0.87;;;15.80;1.00;;;;;;5069282;28;20549;-78
2022/04/17 11:27:11;;;;;;;0.87;0.83;;;15.60;1.00;;;;;;5056270;28;20489;-78
2022/04/17 11:29:44;;;;;;;1.47;1.00;;;15.80;1.00;;;;;;5057077;28;20465;-79
2022/04/17 11:32:51;;;;;;;0.90;0.90;;;15.80;1.00;;;;;;5069490;28;20469;-78
2022/04/17 11:35:23;;;;;;;1.20;1.10;;;15.80;1.00;;;;;;5062470;28;20470;-78
2022/04/17 11:37:57;;;;;;;1.00;0.90;;;15.90;1.00;;;;;;5070005;28;20969;-78
2022/04/17 11:40:28;;;;;;;1.00;0.80;;;16.00;1.00;;;;;;5069379;28;20455;-78
2022/04/17 11:43:04;;;;;;;1.00;1.00;;;16.10;1.00;;;;;;5069634;28;20474;-78
2022/04/17 11:45:32;;;;;;;1.17;0.80;;;16.20;1.00;;;;;;5067543;28;20473;-79
2022/04/17 11:48:05;;;;;;;0.97;0.80;;;16.20;1.00;;;;;;5069839;28;20948;-79
2022/04/17 11:50:34;;;;;;;0.80;0.80;;;16.10;1.00;;;;;;5057036;28;20513;-79
2022/04/17 11:53:04;;;;;;;1.53;0.97;;;15.80;1.00;;;;;;5069458;28;20458;-79
2022/04/17 11:55:34;;;;;;;1.00;1.00;;;15.60;1.00;;;;;;5065013;28;21187;-79
2022/04/17 11:58:04;;;;;;;1.13;1.03;;;15.80;1.00;;;;;;5068611;28;21024;-77
2022/04/17 12:00:33;;;;;;;1.20;1.10;;;16.00;1.00;;;;;;5068418;28;20462;-79
2022/04/17 12:03:02;;;;;;;1.53;1.10;;;16.10;1.00;;;;;;5068008;28;20458;-78
2022/04/17 12:05:32;;;;;;;1.20;1.10;;;16.10;1.00;;;;;;5067885;28;20466;-79
2022/04/17 12:08:10;;;;;;;1.00;0.90;;;16.20;1.00;;;;;;5058094;28;21348;-78
2022/04/17 12:10:40;;;;;;;0.80;0.80;;;16.30;1.00;;;;;;5066201;28;20555;-78
2022/04/17 12:13:21;;;;;;;1.47;1.00;;;16.30;1.00;;;;;;5069522;28;20493;-79
2022/04/17 12:16:00;;;;;;;1.37;1.27;;;16.40;1.00;;;;;;5056597;28;20479;-79
2022/04/17 12:18:29;;;;;;;1.10;1.00;;;16.60;1.00;;;;;;5069112;28;20477;-78
2022/04/17 12:20:59;;;;;;;1.23;0.90;;;16.70;1.00;;;;;;5067958;28;21241;-78
2022/04/17 12:23:29;;;;;;;1.40;1.30;;;16.70;1.00;;;;;;5061345;28;20456;-79
2022/04/17 12:25:59;;;;;;;1.60;1.03;;;16.70;1.00;;;;;;5066201;28;20484;-80
2022/04/17 12:28:29;;;;;;;1.13;1.03;;;16.80;1.00;;;;;;5068828;28;21341;-79
2022/04/17 12:30:58;;;;;;;1.53;0.90;;;16.90;1.00;;;;;;5067272;28;20603;-79
2022/04/17 12:33:28;;;;;;;0.70;0.70;;;16.90;1.00;;;;;;5068801;28;20560;-80
2022/04/17 12:36:04;;;;;;;1.40;0.80;;;17.00;1.00;;;;;;5065584;28;20515;-80
2022/04/17 12:38:33;;;;;;;1.00;1.00;;;17.10;1.00;;;;;;5056259;28;20487;-79
2022/04/17 12:41:01;;;;;;;0.93;0.87;;;17.10;1.00;;;;;;5060696;28;20464;-79
2022/04/17 12:43:31;;;;;;;1.10;1.00;;;17.10;1.00;;;;;;5068266;28;20448;-79
2022/04/17 12:46:03;;;;;;;1.13;1.00;;;17.10;1.00;;;;;;5058489;28;21010;-79
2022/04/17 12:48:33;;;;;;;1.20;1.10;;;17.10;1.00;;;;;;5068338;28;20745;-79
2022/04/17 12:51:04;;;;;;;1.10;1.00;;;17.20;1.00;;;;;;5065863;28;20477;-79
2022/04/17 12:53:37;;;;;;;1.87;0.80;;;17.30;1.00;;;;;;5067324;28;20964;-80
2022/04/17 12:56:07;;;;;;;1.87;0.80;;;17.30;1.00;;;;;;5062920;28;20476;-79
2022/04/17 12:58:49;;;;;;;2.17;1.00;;;17.30;1.00;;;;;;5063988;28;20548;-79
2022/04/17 13:01:22;;;;;;;0.90;0.90;;;17.30;1.00;;;;;;5067871;28;20465;-78
2022/04/17 13:04:11;;;;;;;0.93;0.80;;;17.40;1.00;;;;;;5068129;28;20528;-80
2022/04/17 13:06:40;;;;;;;2.10;1.37;;;17.40;1.00;;;;;;5066961;28;20509;-79
2022/04/17 13:09:12;;;;;;;3.10;1.97;;;17.40;1.00;;;;;;5056436;28;20459;-79
2022/04/17 13:11:43;;;;;;;1.87;1.20;;;17.30;1.00;;;;;;5059782;28;20526;-78
2022/04/17 13:14:13;;;;;;;1.63;0.90;;;17.30;1.00;;;;;;5059101;28;20489;-78
2022/04/17 13:16:52;;;;;;;1.50;1.20;;;17.40;1.00;;;;;;5056529;28;20489;-79
2022/04/17 13:19:22;;;;;;;0.80;0.80;;;17.50;1.00;;;;;;5068162;28;20500;-78
2022/04/17 13:21:51;;;;;;;1.23;0.80;;;17.50;1.00;;;;;;5066207;28;20478;-79
2022/04/17 13:24:21;;;;;;;1.00;0.90;;;17.60;1.00;;;;;;5063576;28;20453;-79
2022/04/17 13:26:50;;;;;;;0.90;0.90;;;17.60;1.00;;;;;;5065328;28;20492;-79
2022/04/17 13:29:19;;;;;;;1.93;1.00;;;17.60;1.00;;;;;;5066696;28;20476;-79